sensor_id;sensor_type;location;lat;lon;timestamp;pressure;altitude;pressure_sealevel;temperature;humidity
21431;BME280;10876;49.038;10.608;2022-08-24T00:01:23;100116.91;;;14.49;100.00
21431;BME280;10876;49.038;10.608;2022-08-24T00:03:53;100146.66;;;14.52;100.00
21431;BME280;10876;49.038;10.608;2022-08-24T00:06:24;100161.53;;;14.51;100.00
21431;BME280;10876;49.038;10.608;2022-08-24T00:08:52;100198.78;;;14.67;100.00
21431;BME280;10876;49.038;10.608;2022-08-24T00:11:20;100217.41;;;14.75;100.00
21431;BME280;10876;49.038;10.608;2022-08-24T00:13:49;100251.38;;;14.90;100.00
21431;BME280;10876;49.038;10.608;2022-08-24T00:16:17;100273.28;;;15.00;100.00
21431;BME280;10876;49.038;10.608;2022-08-24T00:18:45;100281.47;;;15.05;100.00
21431;BME280;10876;49.038;10.608;2022-08-24T00:21:13;100303.78;;;15.08;100.00
21431;BME280;10876;49.038;10.608;2022-08-24T00:23:40;100314.44;;;15.15;100.00
21431;BME280;10876;49.038;10.608;2022-08-24T00:26:07;100319.34;;;15.18;100.00
21431;BME280;10876;49.038;10.608;2022-08-24T00:28:36;100327.50;;;15.09;100.00
21431;BME280;10876;49.038;10.608;2022-08-24T00:31:04;100312.34;;;14.74;100.00
21431;BME280;10876;49.038;10.608;2022-08-24T00:33:32;100301.31;;;14.50;100.00
21431;BME280;10876;49.038;10.608;2022-08-24T00:35:58;100301.84;;;14.33;100.00
21431;BME280;10876;49.038;10.608;2022-08-24T00:38:26;100273.03;;;14.02;100.00
21431;BME280;10876;49.038;10.608;2022-08-24T00:40:53;100262.16;;;13.91;100.00
21431;BME280;10876;49.038;10.608;2022-08-24T00:43:23;100268.78;;;13.90;100.00
21431;BME280;10876;49.038;10.608;2022-08-24T00:46:09;100285.88;;;13.87;100.00
21431;BME280;10876;49.038;10.608;2022-08-24T00:48:42;100281.16;;;13.69;100.00
21431;BME280;10876;49.038;10.608;2022-08-24T00:51:17;100284.56;;;13.61;100.00
21431;BME280;10876;49.038;10.608;2022-08-24T00:53:50;100301.94;;;13.56;100.00
21431;BME280;10876;49.038;10.608;2022-08-24T00:56:26;100307.16;;;13.58;100.00
21431;BME280;10876;49.038;10.608;2022-08-24T00:59:00;100328.06;;;13.59;100.00
21431;BME280;10876;49.038;10.608;2022-08-24T01:01:30;100515.78;;;13.71;100.00
21431;BME280;10876;49.038;10.608;2022-08-24T01:04:00;100564.19;;;13.82;100.00
21431;BME280;10876;49.038;10.608;2022-08-24T01:06:28;100588.44;;;13.80;100.00
21431;BME280;10876;49.038;10.608;2022-08-24T01:08:56;100598.44;;;13.66;100.00
21431;BME280;10876;49.038;10.608;2022-08-24T01:11:25;100621.72;;;13.84;100.00
21431;BME280;10876;49.038;10.608;2022-08-24T01:13:53;100641.81;;;13.89;100.00
21431;BME280;10876;49.038;10.608;2022-08-24T01:16:21;100687.44;;;14.11;100.00
21431;BME280;10876;49.038;10.608;2022-08-24T01:19:07;100731.34;;;14.36;98.37
21431;BME280;10876;49.038;10.608;2022-08-24T01:21:40;100750.59;;;14.47;96.20
21431;BME280;10876;49.038;10.608;2022-08-24T01:24:12;100773.72;;;14.56;94.63
21431;BME280;10876;49.038;10.608;2022-08-24T01:26:43;100781.16;;;14.55;94.20
21431;BME280;10876;49.038;10.608;2022-08-24T01:29:15;100802.97;;;14.57;93.92
21431;BME280;10876;49.038;10.608;2022-08-24T01:31:43;100817.00;;;14.60;93.15
21431;BME280;10876;49.038;10.608;2022-08-24T01:34:10;100777.25;;;14.12;99.54
21431;BME280;10876;49.038;10.608;2022-08-24T01:36:41;100781.75;;;13.97;100.00
21431;BME280;10876;49.038;10.608;2022-08-24T01:39:14;100753.81;;;13.55;100.00
21431;BME280;10876;49.038;10.608;2022-08-24T01:41:42;100756.56;;;13.55;100.00
21431;BME280;10876;49.038;10.608;2022-08-24T01:44:09;100767.56;;;13.55;100.00
21431;BME280;10876;49.038;10.608;2022-08-24T01:46:36;100803.88;;;13.77;97.37
21431;BME280;10876;49.038;10.608;2022-08-24T01:49:03;100805.81;;;13.71;96.07
21431;BME280;10876;49.038;10.608;2022-08-24T01:51:32;100800.06;;;13.58;96.91
21431;BME280;10876;49.038;10.608;2022-08-24T01:53:59;100774.78;;;13.35;100.00
21431;BME280;10876;49.038;10.608;2022-08-24T01:56:29;100788.53;;;13.40;96.27
21431;BME280;10876;49.038;10.608;2022-08-24T01:58:56;100804.75;;;13.47;92.13
21431;BME280;10876;49.038;10.608;2022-08-24T02:01:26;100836.97;;;13.46;79.57
21431;BME280;10876;49.038;10.608;2022-08-24T02:03:54;101257.78;;;13.65;67.40
21431;BME280;10876;49.038;10.608;2022-08-24T02:06:22;101312.91;;;13.70;65.39
21431;BME280;10876;49.038;10.608;2022-08-24T02:08:49;101406.41;;;13.87;64.18
21431;BME280;10876;49.038;10.608;2022-08-24T02:11:16;101374.16;;;13.40;65.59
21431;BME280;10876;49.038;10.608;2022-08-24T02:13:44;101355.94;;;13.06;66.35
21431;BME280;10876;49.038;10.608;2022-08-24T02:16:12;101351.38;;;12.90;65.89
21431;BME280;10876;49.038;10.608;2022-08-24T02:18:40;101365.72;;;12.92;64.55
21431;BME280;10876;49.038;10.608;2022-08-24T02:21:08;101393.22;;;12.92;63.67
21431;BME280;10876;49.038;10.608;2022-08-24T02:23:35;101411.19;;;13.00;61.56
21431;BME280;10876;49.038;10.608;2022-08-24T02:26:02;101483.78;;;13.21;59.91
21431;BME280;10876;49.038;10.608;2022-08-24T02:28:29;101533.78;;;13.35;59.22
21431;BME280;10876;49.038;10.608;2022-08-24T02:30:58;101581.59;;;13.50;58.57
21431;BME280;10876;49.038;10.608;2022-08-24T02:33:25;101620.84;;;13.63;58.13
21431;BME280;10876;49.038;10.608;2022-08-24T02:35:53;101649.59;;;13.72;57.88
21431;BME280;10876;49.038;10.608;2022-08-24T02:38:20;101667.25;;;13.76;57.74
21431;BME280;10876;49.038;10.608;2022-08-24T02:40:48;101683.25;;;13.79;57.62
21431;BME280;10876;49.038;10.608;2022-08-24T02:43:15;101703.78;;;13.88;57.42
21431;BME280;10876;49.038;10.608;2022-08-24T02:45:44;101692.56;;;13.73;57.65
21431;BME280;10876;49.038;10.608;2022-08-24T02:48:13;101626.81;;;13.11;58.54
21431;BME280;10876;49.038;10.608;2022-08-24T02:50:41;101627.19;;;12.97;58.26
21431;BME280;10876;49.038;10.608;2022-08-24T02:53:10;101631.56;;;12.76;58.22
21431;BME280;10876;49.038;10.608;2022-08-24T02:55:39;101636.09;;;12.66;58.07
21431;BME280;10876;49.038;10.608;2022-08-24T02:58:07;101686.41;;;12.83;57.47
21431;BME280;10876;49.038;10.608;2022-08-24T03:00:36;101694.44;;;12.68;57.39
21431;BME280;10876;49.038;10.608;2022-08-24T03:03:06;101731.25;;;12.67;57.09
21431;BME280;10876;49.038;10.608;2022-08-24T03:05:34;101741.19;;;12.68;56.91
21431;BME280;10876;49.038;10.608;2022-08-24T03:08:02;101772.59;;;12.72;56.65
21431;BME280;10876;49.038;10.608;2022-08-24T03:10:29;101755.16;;;12.49;56.78
21431;BME280;10876;49.038;10.608;2022-08-24T03:12:56;101756.56;;;12.35;56.76
21431;BME280;10876;49.038;10.608;2022-08-24T03:15:26;101782.19;;;12.24;56.48
21431;BME280;10876;49.038;10.608;2022-08-24T03:17:54;101803.69;;;12.27;56.21
21431;BME280;10876;49.038;10.608;2022-08-24T03:20:21;101784.16;;;12.11;56.14
21431;BME280;10876;49.038;10.608;2022-08-24T03:22:50;101806.97;;;12.12;55.90
21431;BME280;10876;49.038;10.608;2022-08-24T03:25:19;101866.78;;;12.33;55.52
21431;BME280;10876;49.038;10.608;2022-08-24T03:27:49;101885.16;;;12.33;55.37
21431;BME280;10876;49.038;10.608;2022-08-24T03:30:16;101889.50;;;12.29;55.34
21431;BME280;10876;49.038;10.608;2022-08-24T03:32:44;101901.94;;;12.20;55.25
21431;BME280;10876;49.038;10.608;2022-08-24T03:35:12;102042.34;;;12.42;55.07
21431;BME280;10876;49.038;10.608;2022-08-24T03:37:39;102047.28;;;12.28;55.04
21431;BME280;10876;49.038;10.608;2022-08-24T03:40:11;102053.94;;;12.20;55.02
21431;BME280;10876;49.038;10.608;2022-08-24T03:42:38;102064.59;;;12.16;54.94
21431;BME280;10876;49.038;10.608;2022-08-24T03:45:06;102072.09;;;12.09;54.88
21431;BME280;10876;49.038;10.608;2022-08-24T03:47:34;102093.13;;;12.15;54.78
21431;BME280;10876;49.038;10.608;2022-08-24T03:50:02;102116.91;;;12.22;54.65
21431;BME280;10876;49.038;10.608;2022-08-24T03:52:29;102127.69;;;12.11;54.61
21431;BME280;10876;49.038;10.608;2022-08-24T03:54:56;102137.09;;;12.15;54.54
21431;BME280;10876;49.038;10.608;2022-08-24T03:57:24;102177.06;;;12.30;54.42
21431;BME280;10876;49.038;10.608;2022-08-24T03:59:51;102205.28;;;12.37;54.35
21431;BME280;10876;49.038;10.608;2022-08-24T04:02:19;102232.97;;;12.24;54.33
21431;BME280;10876;49.038;10.608;2022-08-24T04:04:46;102238.22;;;12.13;54.34
21431;BME280;10876;49.038;10.608;2022-08-24T04:07:13;102248.13;;;12.14;54.31
21431;BME280;10876;49.038;10.608;2022-08-24T04:09:39;102227.59;;;11.87;54.36
21431;BME280;10876;49.038;10.608;2022-08-24T04:12:07;102251.69;;;11.85;54.31
21431;BME280;10876;49.038;10.608;2022-08-24T04:14:35;102244.59;;;11.77;54.30
21431;BME280;10876;49.038;10.608;2022-08-24T04:17:03;102238.78;;;11.67;54.30
21431;BME280;10876;49.038;10.608;2022-08-24T04:19:30;102256.13;;;11.67;54.24
21431;BME280;10876;49.038;10.608;2022-08-24T04:21:57;102286.97;;;11.88;54.13
21431;BME280;10876;49.038;10.608;2022-08-24T04:24:25;102327.53;;;12.04;54.05
21431;BME280;10876;49.038;10.608;2022-08-24T04:26:52;102346.78;;;12.23;53.98
21431;BME280;10876;49.038;10.608;2022-08-24T04:29:20;102399.44;;;12.38;53.88
21431;BME280;10876;49.038;10.608;2022-08-24T04:31:48;102422.19;;;12.45;53.85
21431;BME280;10876;49.038;10.608;2022-08-24T04:34:15;102444.47;;;12.55;53.83
21431;BME280;10876;49.038;10.608;2022-08-24T04:36:43;102471.31;;;12.60;53.82
21431;BME280;10876;49.038;10.608;2022-08-24T04:39:11;102487.72;;;12.67;53.80
21431;BME280;10876;49.038;10.608;2022-08-24T04:41:38;102473.38;;;12.46;53.85
21431;BME280;10876;49.038;10.608;2022-08-24T04:44:07;102480.88;;;12.39;53.84
21431;BME280;10876;49.038;10.608;2022-08-24T04:46:33;102473.97;;;12.30;53.86
21431;BME280;10876;49.038;10.608;2022-08-24T04:49:02;102512.66;;;12.53;53.80
21431;BME280;10876;49.038;10.608;2022-08-24T04:51:29;102538.78;;;12.62;53.77
21431;BME280;10876;49.038;10.608;2022-08-24T04:53:56;102542.44;;;12.56;53.77
21431;BME280;10876;49.038;10.608;2022-08-24T04:56:24;102536.63;;;12.46;53.78
21431;BME280;10876;49.038;10.608;2022-08-24T04:58:53;102560.38;;;12.59;53.74
21431;BME280;10876;49.038;10.608;2022-08-24T05:01:22;102544.34;;;12.56;53.74
21431;BME280;10876;49.038;10.608;2022-08-24T05:03:51;102596.16;;;12.77;53.68
21431;BME280;10876;49.038;10.608;2022-08-24T05:06:22;102620.06;;;12.95;53.67
21431;BME280;10876;49.038;10.608;2022-08-24T05:08:50;102639.19;;;13.08;53.65
21431;BME280;10876;49.038;10.608;2022-08-24T05:11:18;102664.66;;;13.22;53.67
21431;BME280;10876;49.038;10.608;2022-08-24T05:13:45;102701.41;;;13.35;53.68
21431;BME280;10876;49.038;10.608;2022-08-24T05:16:15;102699.81;;;13.45;53.74
21431;BME280;10876;49.038;10.608;2022-08-24T05:18:43;102708.81;;;13.52;53.75
21431;BME280;10876;49.038;10.608;2022-08-24T05:21:12;102708.34;;;13.56;53.79
21431;BME280;10876;49.038;10.608;2022-08-24T05:23:41;102726.56;;;13.57;53.82
21431;BME280;10876;49.038;10.608;2022-08-24T05:26:09;102727.78;;;13.61;53.87
21431;BME280;10876;49.038;10.608;2022-08-24T05:28:38;102738.34;;;13.64;53.89
21431;BME280;10876;49.038;10.608;2022-08-24T05:31:06;102749.03;;;13.72;53.92
21431;BME280;10876;49.038;10.608;2022-08-24T05:33:34;102770.94;;;13.85;53.95
21431;BME280;10876;49.038;10.608;2022-08-24T05:36:01;102773.13;;;13.95;53.99
21431;BME280;10876;49.038;10.608;2022-08-24T05:38:28;102748.69;;;13.98;54.03
21431;BME280;10876;49.038;10.608;2022-08-24T05:40:57;102756.94;;;13.98;54.05
21431;BME280;10876;49.038;10.608;2022-08-24T05:43:25;102762.75;;;14.09;54.06
21431;BME280;10876;49.038;10.608;2022-08-24T05:45:52;102765.19;;;14.17;54.11
21431;BME280;10876;49.038;10.608;2022-08-24T05:48:19;102775.06;;;14.36;54.12
21431;BME280;10876;49.038;10.608;2022-08-24T05:50:51;102796.78;;;14.63;54.13
21431;BME280;10876;49.038;10.608;2022-08-24T05:53:18;102842.66;;;14.87;54.12
21431;BME280;10876;49.038;10.608;2022-08-24T05:55:45;102849.91;;;15.12;54.13
21431;BME280;10876;49.038;10.608;2022-08-24T05:58:14;102765.78;;;15.55;54.17
21431;BME280;10876;49.038;10.608;2022-08-24T06:00:42;102775.84;;;16.13;54.14
21431;BME280;10876;49.038;10.608;2022-08-24T06:03:11;102775.50;;;16.55;54.20
21431;BME280;10876;49.038;10.608;2022-08-24T06:05:39;102756.22;;;16.94;54.31
21431;BME280;10876;49.038;10.608;2022-08-24T06:08:06;102758.72;;;17.51;54.34
21431;BME280;10876;49.038;10.608;2022-08-24T06:10:38;102735.22;;;18.03;54.41
21431;BME280;10876;49.038;10.608;2022-08-24T06:13:06;102556.66;;;18.30;54.73
21431;BME280;10876;49.038;10.608;2022-08-24T06:15:34;102384.25;;;18.26;55.21
21431;BME280;10876;49.038;10.608;2022-08-24T06:18:02;102332.66;;;18.45;55.46
21431;BME280;10876;49.038;10.608;2022-08-24T06:20:32;102326.06;;;19.08;55.50
21431;BME280;10876;49.038;10.608;2022-08-24T06:23:03;102266.00;;;19.27;55.76
21431;BME280;10876;49.038;10.608;2022-08-24T06:25:30;102272.31;;;19.48;56.23
21431;BME280;10876;49.038;10.608;2022-08-24T06:28:14;102239.13;;;19.83;56.71
21431;BME280;10876;49.038;10.608;2022-08-24T06:30:42;102230.47;;;20.29;57.12
21431;BME280;10876;49.038;10.608;2022-08-24T06:33:09;102202.06;;;20.66;57.87
21431;BME280;10876;49.038;10.608;2022-08-24T06:35:36;102151.72;;;20.86;59.10
21431;BME280;10876;49.038;10.608;2022-08-24T06:38:03;102036.13;;;20.79;60.48
21431;BME280;10876;49.038;10.608;2022-08-24T06:40:30;101975.47;;;20.70;62.58
21431;BME280;10876;49.038;10.608;2022-08-24T06:43:00;101954.34;;;21.07;63.98
21431;BME280;10876;49.038;10.608;2022-08-24T06:45:27;101883.25;;;21.24;66.43
21431;BME280;10876;49.038;10.608;2022-08-24T06:47:56;101808.25;;;21.22;71.53
21431;BME280;10876;49.038;10.608;2022-08-24T06:50:24;101757.91;;;21.60;80.84
21431;BME280;10876;49.038;10.608;2022-08-24T06:52:51;101669.22;;;21.71;90.06
21431;BME280;10876;49.038;10.608;2022-08-24T06:55:18;101669.53;;;21.69;100.00
21431;BME280;10876;49.038;10.608;2022-08-24T06:57:45;101608.78;;;21.89;100.00
21431;BME280;10876;49.038;10.608;2022-08-24T07:00:13;101518.00;;;21.91;100.00
21431;BME280;10876;49.038;10.608;2022-08-24T07:02:41;101440.28;;;22.16;100.00
21431;BME280;10876;49.038;10.608;2022-08-24T07:05:10;101374.69;;;22.44;100.00
21431;BME280;10876;49.038;10.608;2022-08-24T07:07:37;101252.56;;;22.27;100.00
21431;BME280;10876;49.038;10.608;2022-08-24T07:10:05;101206.06;;;22.58;100.00
21431;BME280;10876;49.038;10.608;2022-08-24T07:12:33;101080.09;;;22.71;100.00
21431;BME280;10876;49.038;10.608;2022-08-24T07:15:00;100928.22;;;22.88;100.00
21431;BME280;10876;49.038;10.608;2022-08-24T07:17:28;100741.91;;;22.92;100.00
21431;BME280;10876;49.038;10.608;2022-08-24T07:19:55;100646.66;;;23.10;100.00
21431;BME280;10876;49.038;10.608;2022-08-24T07:22:23;100453.72;;;22.98;100.00
21431;BME280;10876;49.038;10.608;2022-08-24T07:24:50;100391.00;;;23.23;100.00
21431;BME280;10876;49.038;10.608;2022-08-24T07:27:17;100342.13;;;23.61;100.00
21431;BME280;10876;49.038;10.608;2022-08-24T07:29:44;100269.75;;;23.75;100.00
21431;BME280;10876;49.038;10.608;2022-08-24T07:32:11;100196.38;;;24.01;100.00
21431;BME280;10876;49.038;10.608;2022-08-24T07:34:38;100141.94;;;24.18;100.00
21431;BME280;10876;49.038;10.608;2022-08-24T07:37:05;100044.28;;;24.17;100.00
21431;BME280;10876;49.038;10.608;2022-08-24T07:39:33;99981.13;;;24.19;100.00
21431;BME280;10876;49.038;10.608;2022-08-24T07:42:00;99944.25;;;24.17;100.00
21431;BME280;10876;49.038;10.608;2022-08-24T07:44:27;99906.59;;;24.15;100.00
21431;BME280;10876;49.038;10.608;2022-08-24T07:46:55;99884.94;;;24.58;100.00
21431;BME280;10876;49.038;10.608;2022-08-24T07:49:22;99824.59;;;24.41;100.00
21431;BME280;10876;49.038;10.608;2022-08-24T07:51:49;99728.00;;;24.58;100.00
21431;BME280;10876;49.038;10.608;2022-08-24T07:54:18;99728.81;;;24.92;100.00
21431;BME280;10876;49.038;10.608;2022-08-24T07:56:46;99706.03;;;24.93;100.00
21431;BME280;10876;49.038;10.608;2022-08-24T07:59:14;99670.00;;;24.58;100.00
21431;BME280;10876;49.038;10.608;2022-08-24T08:01:42;99706.47;;;25.33;100.00
21431;BME280;10876;49.038;10.608;2022-08-24T08:04:09;99688.09;;;25.39;100.00
21431;BME280;10876;49.038;10.608;2022-08-24T08:06:36;99679.00;;;25.56;100.00
21431;BME280;10876;49.038;10.608;2022-08-24T08:09:03;99664.19;;;25.59;100.00
21431;BME280;10876;49.038;10.608;2022-08-24T08:11:31;99662.03;;;25.90;100.00
21431;BME280;10876;49.038;10.608;2022-08-24T08:13:59;99643.88;;;25.77;100.00
21431;BME280;10876;49.038;10.608;2022-08-24T08:16:26;99653.38;;;26.17;100.00
21431;BME280;10876;49.038;10.608;2022-08-24T08:18:53;99613.91;;;25.92;100.00
21431;BME280;10876;49.038;10.608;2022-08-24T08:21:20;99598.03;;;26.28;100.00
21431;BME280;10876;49.038;10.608;2022-08-24T08:24:05;99576.50;;;26.64;100.00
21431;BME280;10876;49.038;10.608;2022-08-24T08:26:43;99556.31;;;26.41;100.00
21431;BME280;10876;49.038;10.608;2022-08-24T08:29:12;99552.28;;;26.38;100.00
21431;BME280;10876;49.038;10.608;2022-08-24T08:31:39;99536.22;;;26.28;100.00
21431;BME280;10876;49.038;10.608;2022-08-24T08:34:07;99529.72;;;26.06;100.00
21431;BME280;10876;49.038;10.608;2022-08-24T08:36:34;99496.81;;;26.06;100.00
21431;BME280;10876;49.038;10.608;2022-08-24T08:39:08;99501.78;;;26.63;100.00
21431;BME280;10876;49.038;10.608;2022-08-24T08:42:11;99608.63;;;26.74;100.00
21431;BME280;10876;49.038;10.608;2022-08-24T08:44:50;99601.03;;;27.14;100.00
21431;BME280;10876;49.038;10.608;2022-08-24T08:47:31;99584.59;;;27.30;100.00
21431;BME280;10876;49.038;10.608;2022-08-24T08:50:13;99541.56;;;27.01;100.00
21431;BME280;10876;49.038;10.608;2022-08-24T08:56:01;99505.78;;;27.09;100.00
21431;BME280;10876;49.038;10.608;2022-08-24T08:58:45;99488.09;;;27.12;100.00
21431;BME280;10876;49.038;10.608;2022-08-24T09:01:23;99466.81;;;27.25;100.00
21431;BME280;10876;49.038;10.608;2022-08-24T09:04:19;99451.97;;;26.78;100.00
21431;BME280;10876;49.038;10.608;2022-08-24T09:07:15;99443.94;;;26.62;100.00
21431;BME280;10876;49.038;10.608;2022-08-24T09:10:01;99448.72;;;27.12;100.00
21431;BME280;10876;49.038;10.608;2022-08-24T09:12:37;99461.59;;;27.06;100.00
21431;BME280;10876;49.038;10.608;2022-08-24T09:15:31;99493.72;;;27.26;100.00
21431;BME280;10876;49.038;10.608;2022-08-24T09:18:16;99495.34;;;27.24;100.00
21431;BME280;10876;49.038;10.608;2022-08-24T09:21:02;99501.78;;;27.13;100.00
21431;BME280;10876;49.038;10.608;2022-08-24T09:23:40;99496.97;;;27.28;100.00
21431;BME280;10876;49.038;10.608;2022-08-24T09:26:22;99512.16;;;27.52;100.00
21431;BME280;10876;49.038;10.608;2022-08-24T09:28:56;99474.69;;;27.80;100.00
21431;BME280;10876;49.038;10.608;2022-08-24T09:31:38;99455.53;;;27.36;100.00
21431;BME280;10876;49.038;10.608;2022-08-24T09:34:24;99462.38;;;27.21;100.00
21431;BME280;10876;49.038;10.608;2022-08-24T09:36:54;99464.00;;;27.25;100.00
21431;BME280;10876;49.038;10.608;2022-08-24T09:39:45;99467.88;;;27.81;100.00
21431;BME280;10876;49.038;10.608;2022-08-24T09:42:58;99484.41;;;27.58;100.00
21431;BME280;10876;49.038;10.608;2022-08-24T09:45:49;99483.94;;;27.77;100.00
21431;BME280;10876;49.038;10.608;2022-08-24T09:48:48;99484.03;;;27.49;100.00
21431;BME280;10876;49.038;10.608;2022-08-24T09:51:46;99501.63;;;27.89;100.00
21431;BME280;10876;49.038;10.608;2022-08-24T09:57:47;99510.03;;;28.69;100.00
21431;BME280;10876;49.038;10.608;2022-08-24T10:00:27;99484.50;;;28.28;100.00
21431;BME280;10876;49.038;10.608;2022-08-24T10:03:11;99469.53;;;28.38;100.00
21431;BME280;10876;49.038;10.608;2022-08-24T10:06:06;99441.50;;;28.72;100.00
21431;BME280;10876;49.038;10.608;2022-08-24T10:08:54;99276.38;;;29.33;100.00
21431;BME280;10876;49.038;10.608;2022-08-24T10:11:35;99209.09;;;28.97;100.00
21431;BME280;10876;49.038;10.608;2022-08-24T10:14:11;99179.09;;;28.11;100.00
21431;BME280;10876;49.038;10.608;2022-08-24T10:16:43;99158.97;;;27.68;100.00
21431;BME280;10876;49.038;10.608;2022-08-24T10:19:27;99169.38;;;28.54;100.00
21431;BME280;10876;49.038;10.608;2022-08-24T10:22:04;99156.16;;;28.78;100.00
21431;BME280;10876;49.038;10.608;2022-08-24T10:25:02;99137.94;;;29.13;100.00
21431;BME280;10876;49.038;10.608;2022-08-24T10:27:45;99122.78;;;29.03;100.00
21431;BME280;10876;49.038;10.608;2022-08-24T10:30:35;99093.53;;;28.63;100.00
21431;BME280;10876;49.038;10.608;2022-08-24T10:33:10;99066.34;;;28.15;100.00
21431;BME280;10876;49.038;10.608;2022-08-24T10:35:54;99060.91;;;28.31;100.00
21431;BME280;10876;49.038;10.608;2022-08-24T10:38:29;99052.41;;;28.65;100.00
21431;BME280;10876;49.038;10.608;2022-08-24T10:41:41;99048.41;;;27.60;100.00
21431;BME280;10876;49.038;10.608;2022-08-24T10:44:27;99044.16;;;27.45;100.00
21431;BME280;10876;49.038;10.608;2022-08-24T10:47:06;99058.38;;;28.06;100.00
21431;BME280;10876;49.038;10.608;2022-08-24T10:53:12;99030.06;;;28.51;100.00
21431;BME280;10876;49.038;10.608;2022-08-24T10:55:41;99017.47;;;28.83;100.00
21431;BME280;10876;49.038;10.608;2022-08-24T10:58:24;99014.44;;;29.21;100.00
21431;BME280;10876;49.038;10.608;2022-08-24T11:01:12;99017.19;;;29.24;100.00
21431;BME280;10876;49.038;10.608;2022-08-24T11:03:47;98998.84;;;28.04;100.00
21431;BME280;10876;49.038;10.608;2022-08-24T11:06:16;99007.34;;;28.00;100.00
21431;BME280;10876;49.038;10.608;2022-08-24T11:08:51;99007.09;;;27.53;100.00
21431;BME280;10876;49.038;10.608;2022-08-24T11:11:24;99012.06;;;27.73;100.00
21431;BME280;10876;49.038;10.608;2022-08-24T11:13:55;99011.59;;;26.99;100.00
21431;BME280;10876;49.038;10.608;2022-08-24T11:16:31;99015.28;;;26.88;100.00
21431;BME280;10876;49.038;10.608;2022-08-24T11:19:02;99042.78;;;27.98;100.00
21431;BME280;10876;49.038;10.608;2022-08-24T11:21:37;99023.41;;;28.03;100.00
21431;BME280;10876;49.038;10.608;2022-08-24T11:24:25;99023.09;;;27.60;100.00
21431;BME280;10876;49.038;10.608;2022-08-24T11:26:56;99037.38;;;27.80;100.00
21431;BME280;10876;49.038;10.608;2022-08-24T11:29:53;99036.81;;;28.57;100.00
21431;BME280;10876;49.038;10.608;2022-08-24T11:32:36;99028.19;;;28.37;100.00
21431;BME280;10876;49.038;10.608;2022-08-24T11:35:08;99038.63;;;28.71;100.00
21431;BME280;10876;49.038;10.608;2022-08-24T11:37:41;99021.16;;;28.80;100.00
21431;BME280;10876;49.038;10.608;2022-08-24T11:40:10;99013.19;;;29.25;100.00
21431;BME280;10876;49.038;10.608;2022-08-24T11:43:00;99140.50;;;29.54;100.00
21431;BME280;10876;49.038;10.608;2022-08-24T11:45:34;99119.50;;;29.32;100.00
21431;BME280;10876;49.038;10.608;2022-08-24T11:48:12;99102.50;;;28.54;100.00
21431;BME280;10876;49.038;10.608;2022-08-24T11:50:45;99090.06;;;28.17;100.00
21431;BME280;10876;49.038;10.608;2022-08-24T11:53:23;99096.53;;;28.48;100.00
21431;BME280;10876;49.038;10.608;2022-08-24T11:56:03;99093.63;;;28.21;100.00
21431;BME280;10876;49.038;10.608;2022-08-24T11:58:47;99101.84;;;27.67;100.00
21431;BME280;10876;49.038;10.608;2022-08-24T12:01:22;99122.97;;;27.45;100.00
21431;BME280;10876;49.038;10.608;2022-08-24T12:04:03;99116.50;;;27.44;100.00
21431;BME280;10876;49.038;10.608;2022-08-24T12:06:41;99098.44;;;27.87;100.00
21431;BME280;10876;49.038;10.608;2022-08-24T12:09:19;99102.53;;;27.82;100.00
21431;BME280;10876;49.038;10.608;2022-08-24T12:11:57;99088.63;;;27.19;100.00
21431;BME280;10876;49.038;10.608;2022-08-24T12:14:32;99092.13;;;26.71;100.00
21431;BME280;10876;49.038;10.608;2022-08-24T12:17:07;99112.13;;;26.87;100.00
21431;BME280;10876;49.038;10.608;2022-08-24T12:19:44;99122.63;;;26.72;100.00
21431;BME280;10876;49.038;10.608;2022-08-24T12:22:12;99127.44;;;26.72;100.00
21431;BME280;10876;49.038;10.608;2022-08-24T12:24:44;99132.25;;;26.75;100.00
21431;BME280;10876;49.038;10.608;2022-08-24T12:27:15;99134.78;;;26.51;100.00
21431;BME280;10876;49.038;10.608;2022-08-24T12:29:49;99138.09;;;26.18;100.00
21431;BME280;10876;49.038;10.608;2022-08-24T12:32:22;99142.09;;;26.24;100.00
21431;BME280;10876;49.038;10.608;2022-08-24T12:34:56;99166.56;;;27.22;100.00
21431;BME280;10876;49.038;10.608;2022-08-24T12:37:29;99152.16;;;27.65;100.00
21431;BME280;10876;49.038;10.608;2022-08-24T12:40:03;99137.66;;;27.11;100.00
21431;BME280;10876;49.038;10.608;2022-08-24T12:42:39;99134.03;;;27.14;100.00
21431;BME280;10876;49.038;10.608;2022-08-24T12:45:13;99146.19;;;27.56;100.00
21431;BME280;10876;49.038;10.608;2022-08-24T12:47:47;99133.19;;;27.69;100.00
21431;BME280;10876;49.038;10.608;2022-08-24T12:50:23;99131.94;;;28.15;100.00
21431;BME280;10876;49.038;10.608;2022-08-24T12:53:20;99118.63;;;27.81;100.00
21431;BME280;10876;49.038;10.608;2022-08-24T12:56:25;99115.25;;;26.96;100.00
21431;BME280;10876;49.038;10.608;2022-08-24T12:59:07;99126.81;;;27.13;100.00
21431;BME280;10876;49.038;10.608;2022-08-24T13:01:43;99138.44;;;27.15;100.00
21431;BME280;10876;49.038;10.608;2022-08-24T13:04:17;99140.56;;;27.52;100.00
21431;BME280;10876;49.038;10.608;2022-08-24T13:06:48;99135.53;;;27.81;100.00
21431;BME280;10876;49.038;10.608;2022-08-24T13:09:28;99132.88;;;28.39;100.00
21431;BME280;10876;49.038;10.608;2022-08-24T13:11:57;99119.75;;;28.25;100.00
21431;BME280;10876;49.038;10.608;2022-08-24T13:14:27;99110.50;;;27.91;100.00